createdAt,value
2022-11-29T00:01:42.067Z,21.87
2022-11-29T00:04:10.566Z,18.23
2022-11-29T00:06:40.442Z,23.90
2022-11-29T00:09:14.079Z,21.47
2022-11-29T00:12:00.819Z,26.47
2022-11-29T00:14:32.482Z,24.17
2022-11-29T00:17:02.241Z,23.33
2022-11-29T00:19:31.104Z,22.37
2022-11-29T00:22:01.006Z,23.37
2022-11-29T00:24:31.481Z,25.60
2022-11-29T00:27:00.177Z,24.70
2022-11-29T00:29:30.163Z,20.20
2022-11-29T00:31:58.190Z,16.07
2022-11-29T00:34:26.266Z,24.10
2022-11-29T00:36:54.246Z,23.57
2022-11-29T00:39:23.650Z,27.73
2022-11-29T00:41:51.709Z,19.67
2022-11-29T00:44:22.328Z,20.27
2022-11-29T00:46:50.528Z,30.53
2022-11-29T00:49:18.828Z,17.53
2022-11-29T00:51:47.335Z,19.00
2022-11-29T00:54:15.592Z,25.40
2022-11-29T00:56:45.040Z,19.60
2022-11-29T00:59:13.072Z,22.13
2022-11-29T01:01:41.258Z,22.73
2022-11-29T01:04:09.371Z,21.13
2022-11-29T01:06:37.450Z,18.13
2022-11-29T01:09:06.025Z,20.67
2022-11-29T01:11:34.607Z,19.60
2022-11-29T01:14:06.492Z,21.40
2022-11-29T01:16:35.281Z,43.90
2022-11-29T01:19:03.851Z,19.80
2022-11-29T01:21:32.237Z,20.17
2022-11-29T01:24:01.400Z,19.20
2022-11-29T01:26:31.626Z,17.73
2022-11-29T01:29:00.997Z,23.43
2022-11-29T01:31:35.857Z,18.73
2022-11-29T01:34:06.502Z,14.70
2022-11-29T01:36:35.174Z,18.60
2022-11-29T01:39:05.626Z,16.60
2022-11-29T01:41:36.307Z,15.67
2022-11-29T01:44:08.295Z,20.93
2022-11-29T01:46:41.277Z,16.17
2022-11-29T01:49:13.334Z,32.53
2022-11-29T01:51:46.038Z,19.10
2022-11-29T01:54:17.784Z,16.30
2022-11-29T01:56:48.070Z,17.47
2022-11-29T01:59:22.476Z,19.60
2022-11-29T02:01:53.276Z,19.40
2022-11-29T02:04:21.847Z,17.27
2022-11-29T02:06:49.910Z,25.30
2022-11-29T02:09:20.513Z,17.37
2022-11-29T02:12:06.453Z,13.67
2022-11-29T02:15:06.526Z,18.80
2022-11-29T02:17:53.637Z,10.63
2022-11-29T02:21:09.429Z,16.37
2022-11-29T02:24:15.045Z,12.80
2022-11-29T02:27:17.972Z,17.17
2022-11-29T02:30:16.901Z,13.90
2022-11-29T02:33:29.170Z,20.93
2022-11-29T02:36:44.767Z,15.10
2022-11-29T02:39:45.093Z,11.30
2022-11-29T02:42:56.472Z,13.50
2022-11-29T02:45:48.197Z,17.03
2022-11-29T02:48:52.126Z,18.73
2022-11-29T02:51:27.400Z,25.13
2022-11-29T02:54:03.187Z,16.00
2022-11-29T02:56:38.529Z,14.50
2022-11-29T02:59:17.194Z,12.70
2022-11-29T03:01:57.053Z,18.50
2022-11-29T03:04:34.187Z,20.10
2022-11-29T03:07:14.859Z,12.00
2022-11-29T03:09:48.820Z,19.40
2022-11-29T03:12:27.403Z,13.50
2022-11-29T03:15:04.694Z,13.20
2022-11-29T03:17:47.581Z,11.70
2022-11-29T03:20:30.431Z,17.77
2022-11-29T03:23:16.305Z,17.53
2022-11-29T03:25:50.099Z,9.47
2022-11-29T03:28:22.172Z,13.07
2022-11-29T03:30:59.538Z,12.60
2022-11-29T03:33:39.581Z,13.87
2022-11-29T03:36:16.732Z,14.20
2022-11-29T03:38:47.479Z,15.90
2022-11-29T03:41:23.786Z,11.53
2022-11-29T03:44:02.249Z,10.73
2022-11-29T03:46:37.822Z,14.23
2022-11-29T03:49:12.348Z,7.63
2022-11-29T03:51:54.035Z,16.07
2022-11-29T03:54:27.857Z,15.37
2022-11-29T03:56:56.897Z,10.33
2022-11-29T03:59:53.518Z,18.77
2022-11-29T04:03:18.824Z,10.67
2022-11-29T04:06:07.831Z,10.83
2022-11-29T04:09:13.110Z,12.57
2022-11-29T04:12:07.771Z,9.13
2022-11-29T04:15:24.832Z,10.97
2022-11-29T04:18:29.770Z,12.73
2022-11-29T04:21:51.024Z,9.70
2022-11-29T04:25:05.641Z,15.83
2022-11-29T04:27:49.676Z,11.60
2022-11-29T04:30:22.225Z,10.20
2022-11-29T04:33:42.399Z,12.70
2022-11-29T04:36:47.945Z,11.67
2022-11-29T04:39:37.683Z,13.83
2022-11-29T04:42:43.782Z,13.60
2022-11-29T04:46:00.044Z,10.80
2022-11-29T04:48:56.917Z,12.03
2022-11-29T04:51:42.290Z,10.27
2022-11-29T04:54:18.353Z,10.53
2022-11-29T04:56:51.287Z,12.53
2022-11-29T04:59:26.633Z,10.10
2022-11-29T05:02:08.306Z,6.90
2022-11-29T05:04:52.515Z,10.07
2022-11-29T05:07:32.363Z,10.50
2022-11-29T05:10:19.542Z,8.60
2022-11-29T05:13:00.857Z,9.97
2022-11-29T05:15:56.147Z,22.73
2022-11-29T05:18:50.823Z,12.10
2022-11-29T05:21:30.048Z,13.90
2022-11-29T05:24:13.507Z,16.00
2022-11-29T05:26:51.058Z,13.73
2022-11-29T05:29:27.333Z,13.73
2022-11-29T05:32:05.785Z,16.50
2022-11-29T05:34:51.016Z,10.07
2022-11-29T05:37:31.132Z,15.63
2022-11-29T05:40:29.760Z,18.03
2022-11-29T05:43:19.689Z,12.47
2022-11-29T05:45:57.474Z,7.47
2022-11-29T05:48:32.470Z,11.93
2022-11-29T05:51:17.601Z,12.40
2022-11-29T05:53:55.696Z,17.10
2022-11-29T05:56:37.567Z,12.00
2022-11-29T05:59:12.258Z,13.80
2022-11-29T06:01:53.801Z,13.20
2022-11-29T06:04:29.187Z,9.30
2022-11-29T06:07:05.417Z,30.40
2022-11-29T06:09:40.977Z,27.00
2022-11-29T06:12:20.991Z,18.77
2022-11-29T06:15:24.360Z,12.37
2022-11-29T06:18:13.460Z,11.87
2022-11-29T06:20:57.200Z,10.57
2022-11-29T06:24:06.991Z,8.90
2022-11-29T06:27:04.796Z,13.77
2022-11-29T06:29:43.964Z,14.90
2022-11-29T06:32:25.602Z,8.60
2022-11-29T06:35:03.951Z,8.23
2022-11-29T06:37:38.537Z,14.83
2022-11-29T06:40:11.720Z,17.00
2022-11-29T06:42:39.739Z,8.43
2022-11-29T06:45:10.844Z,14.33
2022-11-29T06:47:45.541Z,11.80
2022-11-29T06:50:32.779Z,14.50
2022-11-29T06:53:10.811Z,24.53
2022-11-29T06:55:50.934Z,12.40
2022-11-29T06:58:38.853Z,10.43
2022-11-29T07:01:19.694Z,6.27
2022-11-29T07:04:16.403Z,10.63
2022-11-29T07:06:46.644Z,11.97
2022-11-29T07:09:18.348Z,8.33
2022-11-29T07:11:48.128Z,21.43
2022-11-29T07:14:16.977Z,11.63
2022-11-29T07:16:57.170Z,14.20
2022-11-29T07:19:37.351Z,11.23
2022-11-29T07:22:38.489Z,9.40
2022-11-29T07:25:21.535Z,8.73
2022-11-29T07:27:59.645Z,10.10
2022-11-29T07:30:36.211Z,14.87
2022-11-29T07:33:15.617Z,9.87
2022-11-29T07:35:50.480Z,13.60
2022-11-29T07:38:34.809Z,9.13
2022-11-29T07:41:11.243Z,14.60
2022-11-29T07:43:48.095Z,14.00
2022-11-29T07:46:16.340Z,14.17
2022-11-29T07:48:44.390Z,10.00
2022-11-29T07:51:12.595Z,20.77
2022-11-29T07:53:44.562Z,22.17
2022-11-29T07:56:13.239Z,15.63
2022-11-29T07:58:41.606Z,10.33
2022-11-29T08:01:09.899Z,14.03
2022-11-29T08:03:37.930Z,14.90
2022-11-29T08:06:06.124Z,11.03
2022-11-29T08:08:37.739Z,11.93
2022-11-29T08:11:13.999Z,17.70
2022-11-29T08:13:41.977Z,11.67
2022-11-29T08:16:10.504Z,18.53
2022-11-29T08:18:38.532Z,12.03
2022-11-29T08:21:07.824Z,9.87
2022-11-29T08:23:35.852Z,16.17
2022-11-29T08:26:04.819Z,24.53
2022-11-29T08:28:34.184Z,18.60
2022-11-29T08:31:03.305Z,23.80
2022-11-29T08:33:31.697Z,19.47
2022-11-29T08:36:08.887Z,16.90
2022-11-29T08:38:38.864Z,16.80
2022-11-29T08:41:10.138Z,18.03
2022-11-29T08:43:39.550Z,17.57
2022-11-29T08:46:07.816Z,13.67
2022-11-29T08:48:36.957Z,15.00
2022-11-29T08:51:05.939Z,11.87
2022-11-29T08:53:42.506Z,17.70
2022-11-29T08:56:41.923Z,21.50
2022-11-29T08:59:01.297Z,30.27
2022-11-29T09:01:30.003Z,19.93
2022-11-29T09:04:02.794Z,24.07
2022-11-29T09:06:33.109Z,29.57
2022-11-29T09:09:02.342Z,18.70
2022-11-29T09:11:31.949Z,17.50
2022-11-29T09:14:04.223Z,17.07
2022-11-29T09:16:36.309Z,22.67
2022-11-29T09:19:05.893Z,28.63
2022-11-29T09:21:36.814Z,22.70
2022-11-29T09:24:07.037Z,23.10
2022-11-29T09:26:37.861Z,24.43
2022-11-29T09:29:12.145Z,23.00
2022-11-29T09:31:40.152Z,25.23
2022-11-29T09:34:08.319Z,22.97
2022-11-29T09:36:36.371Z,18.97
2022-11-29T09:39:04.707Z,18.20
2022-11-29T09:42:02.124Z,16.03
2022-11-29T09:44:42.034Z,26.70
2022-11-29T09:47:38.703Z,23.20
2022-11-29T09:50:22.971Z,19.60
2022-11-29T09:53:04.113Z,21.93
2022-11-29T09:55:49.665Z,21.23
2022-11-29T09:58:26.092Z,16.43
2022-11-29T10:01:01.817Z,18.63
2022-11-29T10:03:34.775Z,16.90
2022-11-29T10:06:08.666Z,17.77
2022-11-29T10:08:42.488Z,21.07
2022-11-29T10:11:20.229Z,19.67
2022-11-29T10:13:53.381Z,22.73
2022-11-29T10:16:32.360Z,21.00
2022-11-29T10:19:05.877Z,18.87
2022-11-29T10:21:37.936Z,21.33
2022-11-29T10:24:13.389Z,18.20
2022-11-29T10:26:43.407Z,35.03
2022-11-29T10:29:14.474Z,21.03
2022-11-29T10:31:49.201Z,21.23
2022-11-29T10:34:20.203Z,18.90
2022-11-29T10:36:50.789Z,17.97
2022-11-29T10:39:25.540Z,27.03
2022-11-29T10:41:57.654Z,17.57
2022-11-29T10:44:26.523Z,16.47
2022-11-29T10:46:56.770Z,28.73
2022-11-29T10:49:29.363Z,27.20
2022-11-29T10:51:57.378Z,23.27
2022-11-29T10:54:38.424Z,28.47
2022-11-29T10:57:15.696Z,20.23
2022-11-29T11:00:00.778Z,20.20
2022-11-29T11:02:30.854Z,23.00
2022-11-29T11:05:00.689Z,16.27
2022-11-29T11:07:33.084Z,21.03
2022-11-29T11:10:02.554Z,17.47
2022-11-29T11:12:33.556Z,17.40
2022-11-29T11:15:28.451Z,33.27
2022-11-29T11:18:01.070Z,29.43
2022-11-29T11:20:31.941Z,32.90
2022-11-29T11:23:06.047Z,27.50
2022-11-29T11:25:36.975Z,27.60
2022-11-29T11:28:20.332Z,28.47
2022-11-29T11:30:53.579Z,29.60
2022-11-29T11:33:28.003Z,28.80
2022-11-29T11:36:09.554Z,29.10
2022-11-29T11:38:40.319Z,27.87
2022-11-29T11:41:22.637Z,29.60
2022-11-29T11:43:54.528Z,22.37
2022-11-29T11:46:22.910Z,23.90
2022-11-29T11:48:54.039Z,22.60
2022-11-29T11:51:27.091Z,26.80
2022-11-29T11:53:58.020Z,24.53
2022-11-29T11:56:34.720Z,17.40
2022-11-29T11:59:02.787Z,18.93
2022-11-29T12:01:37.862Z,25.70
2022-11-29T12:04:12.794Z,22.40
2022-11-29T12:06:52.459Z,17.03
2022-11-29T12:09:37.644Z,13.17
2022-11-29T12:12:14.565Z,17.53
2022-11-29T12:14:54.198Z,25.07
2022-11-29T12:17:33.436Z,13.67
2022-11-29T12:20:20.395Z,14.03
2022-11-29T12:23:04.654Z,12.40
2022-11-29T12:25:40.232Z,58.97
2022-11-29T12:28:14.677Z,23.40
2022-11-29T12:30:58.789Z,15.07
2022-11-29T12:33:38.756Z,9.57
2022-11-29T12:36:25.214Z,10.53
2022-11-29T12:39:17.740Z,17.20
2022-11-29T12:41:54.327Z,7.90
2022-11-29T12:44:41.140Z,13.93
2022-11-29T12:47:35.755Z,6.20
2022-11-29T12:50:20.949Z,4.90
2022-11-29T12:53:15.696Z,7.40
2022-11-29T12:55:51.394Z,34.87
2022-11-29T12:58:29.662Z,19.47
2022-11-29T13:01:12.483Z,8.07
2022-11-29T13:03:48.651Z,12.50
2022-11-29T13:06:25.719Z,8.90
2022-11-29T13:09:22.102Z,5.23
2022-11-29T13:11:57.036Z,5.67
2022-11-29T13:14:42.604Z,6.47
2022-11-29T13:17:26.451Z,8.63
2022-11-29T13:19:57.718Z,2.63
2022-11-29T13:22:39.388Z,4.17
2022-11-29T13:25:16.711Z,18.83
2022-11-29T13:27:58.321Z,19.53
2022-11-29T13:30:26.715Z,43.03
2022-11-29T13:33:03.795Z,20.37
2022-11-29T13:35:41.005Z,18.67
2022-11-29T13:38:18.515Z,23.00
2022-11-29T13:40:57.167Z,17.67
2022-11-29T13:43:30.880Z,19.33
2022-11-29T13:46:20.098Z,13.50
2022-11-29T13:48:52.069Z,19.30
2022-11-29T13:51:38.771Z,75.33
2022-11-29T13:54:25.970Z,88.77
2022-11-29T13:57:05.525Z,21.67
2022-11-29T13:59:37.319Z,12.00
2022-11-29T14:02:27.677Z,8.50
2022-11-29T14:04:56.054Z,11.57
2022-11-29T14:07:24.170Z,7.23
2022-11-29T14:09:59.567Z,4.17
2022-11-29T14:12:37.681Z,8.97
2022-11-29T14:15:20.532Z,3.80
2022-11-29T14:17:53.838Z,3.37
2022-11-29T14:20:59.246Z,8.70
2022-11-29T14:23:40.403Z,5.00
2022-11-29T14:26:30.865Z,4.93
2022-11-29T14:29:01.190Z,3.60
2022-11-29T14:31:52.773Z,5.37
2022-11-29T14:34:44.289Z,4.30
2022-11-29T14:37:42.193Z,5.97
2022-11-29T14:40:26.556Z,6.20
2022-11-29T14:42:55.055Z,7.00
2022-11-29T14:45:28.852Z,7.63
2022-11-29T14:47:57.557Z,5.50
2022-11-29T14:50:36.156Z,4.83
2022-11-29T14:53:14.054Z,7.83
2022-11-29T14:55:42.965Z,8.63
2022-11-29T14:58:21.628Z,7.93
2022-11-29T15:01:10.569Z,10.80
2022-11-29T15:03:48.202Z,6.53
2022-11-29T15:06:25.168Z,9.10
2022-11-29T15:09:03.462Z,6.87
2022-11-29T15:11:52.588Z,11.97
2022-11-29T15:14:27.892Z,10.40
2022-11-29T15:17:12.340Z,9.83
2022-11-29T15:20:07.480Z,12.90
2022-11-29T15:22:49.127Z,11.50
2022-11-29T15:25:19.977Z,13.37
2022-11-29T15:27:52.635Z,9.43
2022-11-29T15:30:28.831Z,17.37
2022-11-29T15:32:59.944Z,23.00
2022-11-29T15:35:28.612Z,19.57
2022-11-29T15:37:57.150Z,15.80
2022-11-29T15:40:34.302Z,13.37
2022-11-29T15:43:14.922Z,22.50
2022-11-29T15:45:51.630Z,16.23
2022-11-29T15:48:23.914Z,9.27
2022-11-29T15:51:06.161Z,16.03
2022-11-29T15:53:39.510Z,14.20
2022-11-29T15:56:17.556Z,17.37
2022-11-29T15:58:47.023Z,13.83
2022-11-29T16:01:21.338Z,24.80
2022-11-29T16:03:55.687Z,17.90
2022-11-29T16:06:30.312Z,28.13
2022-11-29T16:08:59.038Z,27.40
2022-11-29T16:11:29.865Z,18.07
2022-11-29T16:14:18.901Z,21.53
2022-11-29T16:16:49.287Z,19.70
2022-11-29T16:19:27.113Z,32.70
2022-11-29T16:22:12.871Z,28.17
2022-11-29T16:24:48.709Z,17.43
2022-11-29T16:27:16.749Z,25.40
2022-11-29T16:29:46.702Z,42.80
2022-11-29T16:32:19.256Z,33.87
2022-11-29T16:34:49.002Z,20.47
2022-11-29T16:37:21.275Z,25.40
2022-11-29T16:39:52.850Z,31.00
2022-11-29T16:42:26.117Z,37.97
2022-11-29T16:45:34.978Z,26.50
2022-11-29T16:48:28.529Z,24.70
2022-11-29T16:51:24.762Z,22.17
2022-11-29T16:53:54.285Z,26.30
2022-11-29T16:56:29.699Z,28.90
2022-11-29T16:59:24.555Z,21.73
2022-11-29T17:01:52.938Z,17.30
2022-11-29T17:04:23.895Z,28.10
2022-11-29T17:06:54.893Z,29.77
2022-11-29T17:09:26.540Z,35.80
2022-11-29T17:11:55.278Z,34.43
2022-11-29T17:14:23.556Z,25.33
2022-11-29T17:16:52.120Z,24.33
2022-11-29T17:19:26.561Z,23.40
2022-11-29T17:21:58.418Z,27.50
2022-11-29T17:24:26.800Z,23.17
2022-11-29T17:26:54.897Z,30.90
2022-11-29T17:29:22.955Z,27.00
2022-11-29T17:31:53.099Z,16.10
2022-11-29T17:34:21.295Z,29.47
2022-11-29T17:36:49.506Z,27.60
2022-11-29T17:39:20.161Z,17.33
2022-11-29T17:41:48.342Z,17.57
2022-11-29T17:44:16.449Z,13.67
2022-11-29T17:46:44.494Z,13.60
2022-11-29T17:49:12.467Z,29.20
2022-11-29T17:51:56.991Z,27.13
2022-11-29T17:54:26.384Z,27.03
2022-11-29T17:56:54.415Z,24.87
2022-11-29T17:59:22.450Z,23.37
2022-11-29T18:01:50.580Z,15.13
2022-11-29T18:04:18.819Z,18.33
2022-11-29T18:06:50.060Z,24.00
2022-11-29T18:09:20.015Z,20.13
2022-11-29T18:11:50.581Z,24.73
2022-11-29T18:14:22.622Z,24.30
2022-11-29T18:16:51.159Z,31.17
2022-11-29T18:19:21.626Z,20.90
2022-11-29T18:21:50.989Z,29.43
2022-11-29T18:24:19.477Z,48.57
2022-11-29T18:26:48.896Z,72.87
2022-11-29T18:29:16.982Z,41.53
2022-11-29T18:31:46.902Z,28.40
2022-11-29T18:34:16.446Z,26.67
2022-11-29T18:36:47.080Z,35.53
2022-11-29T18:39:23.161Z,20.23
2022-11-29T18:41:52.690Z,20.40
2022-11-29T18:44:24.185Z,22.57
2022-11-29T18:46:52.207Z,32.80
2022-11-29T18:49:20.226Z,28.93
2022-11-29T18:51:49.837Z,24.03
2022-11-29T18:54:20.035Z,22.37
2022-11-29T18:56:52.040Z,26.37
2022-11-29T18:59:21.950Z,32.60
2022-11-29T19:01:50.298Z,26.80
2022-11-29T19:04:20.899Z,24.83
2022-11-29T19:06:49.295Z,23.93
2022-11-29T19:09:20.764Z,24.70
2022-11-29T19:11:49.628Z,31.13
2022-11-29T19:14:19.989Z,26.73
2022-11-29T19:16:50.177Z,33.80
2022-11-29T19:19:19.570Z,20.27
2022-11-29T19:21:47.720Z,32.17
2022-11-29T19:24:18.499Z,25.80
2022-11-29T19:26:48.312Z,20.23
2022-11-29T19:29:18.397Z,35.43
2022-11-29T19:31:46.419Z,27.90
2022-11-29T19:34:16.159Z,20.40
2022-11-29T19:36:45.215Z,34.00
2022-11-29T19:39:15.794Z,19.70
2022-11-29T19:41:46.507Z,19.37
2022-11-29T19:44:15.106Z,35.73
2022-11-29T19:46:48.429Z,22.93
2022-11-29T19:49:16.797Z,32.83
2022-11-29T19:51:44.908Z,21.07
2022-11-29T19:54:13.050Z,18.23
2022-11-29T19:56:41.116Z,27.43
2022-11-29T19:59:09.875Z,22.57
2022-11-29T20:01:41.371Z,22.57
2022-11-29T20:04:12.975Z,36.93
2022-11-29T20:06:42.073Z,19.33
2022-11-29T20:09:10.496Z,30.53
2022-11-29T20:11:38.776Z,24.40
2022-11-29T20:14:08.091Z,22.37
2022-11-29T20:16:37.914Z,26.63
2022-11-29T20:19:11.970Z,32.70
2022-11-29T20:21:44.772Z,28.20
2022-11-29T20:24:14.282Z,30.27
2022-11-29T20:26:44.658Z,29.93
2022-11-29T20:29:14.246Z,34.43
2022-11-29T20:31:49.540Z,32.93
2022-11-29T20:34:21.246Z,26.83
2022-11-29T20:37:22.108Z,19.03
2022-11-29T20:39:57.234Z,37.57
2022-11-29T20:42:47.930Z,32.83
2022-11-29T20:45:17.501Z,33.93
2022-11-29T20:47:52.169Z,23.70
2022-11-29T20:50:24.894Z,27.63
2022-11-29T20:53:28.585Z,32.20
2022-11-29T20:55:56.616Z,32.77
2022-11-29T20:58:26.381Z,41.63
2022-11-29T21:00:54.687Z,45.53
2022-11-29T21:03:23.462Z,37.57
2022-11-29T21:05:57.990Z,50.43
2022-11-29T21:08:27.958Z,56.80
2022-11-29T21:10:56.273Z,43.83
2022-11-29T21:13:25.341Z,58.23
2022-11-29T21:15:54.266Z,48.90
2022-11-29T21:18:28.939Z,43.30
2022-11-29T21:21:13.340Z,33.97
2022-11-29T21:23:53.631Z,36.93
2022-11-29T21:26:28.098Z,51.40
2022-11-29T21:29:07.580Z,36.27
2022-11-29T21:31:36.373Z,43.67
2022-11-29T21:34:04.365Z,39.83
2022-11-29T21:36:36.764Z,38.47
2022-11-29T21:39:05.937Z,31.97
2022-11-29T21:41:34.071Z,40.17
2022-11-29T21:44:07.119Z,36.87
2022-11-29T21:46:36.340Z,38.63
2022-11-29T21:49:04.981Z,51.07
2022-11-29T21:51:35.162Z,40.23
2022-11-29T21:54:03.274Z,62.77
2022-11-29T21:56:31.284Z,38.93
2022-11-29T21:58:59.220Z,36.13
2022-11-29T22:01:29.216Z,41.63
2022-11-29T22:03:57.208Z,30.83
2022-11-29T22:06:26.287Z,35.10
2022-11-29T22:08:55.765Z,45.63
2022-11-29T22:11:31.739Z,47.63
2022-11-29T22:14:17.896Z,39.20
2022-11-29T22:16:48.824Z,32.03
2022-11-29T22:19:18.907Z,31.70
2022-11-29T22:21:51.919Z,37.73
2022-11-29T22:24:25.252Z,31.40
2022-11-29T22:26:54.756Z,38.40
2022-11-29T22:29:24.117Z,26.00
2022-11-29T22:31:56.043Z,28.80
2022-11-29T22:34:26.582Z,34.80
2022-11-29T22:36:54.772Z,26.97
2022-11-29T22:39:24.690Z,38.70
2022-11-29T22:41:55.015Z,35.27
2022-11-29T22:44:23.489Z,32.67
2022-11-29T22:46:52.015Z,27.13
2022-11-29T22:49:20.091Z,33.43
2022-11-29T22:51:48.462Z,45.93
2022-11-29T22:54:17.342Z,44.57
2022-11-29T22:56:47.339Z,32.60
2022-11-29T22:59:15.539Z,50.43
2022-11-29T23:01:44.043Z,47.47
2022-11-29T23:04:13.528Z,33.53
2022-11-29T23:06:44.022Z,27.90
2022-11-29T23:09:16.326Z,44.03
2022-11-29T23:11:50.912Z,32.93
2022-11-29T23:14:19.653Z,32.07
2022-11-29T23:16:47.804Z,37.70
2022-11-29T23:19:16.093Z,42.70
2022-11-29T23:21:46.152Z,38.70
2022-11-29T23:24:14.987Z,22.47
2022-11-29T23:26:46.756Z,35.60
2022-11-29T23:29:17.085Z,32.93
2022-11-29T23:31:46.600Z,27.57
2022-11-29T23:34:15.026Z,29.67
2022-11-29T23:36:46.906Z,34.70
2022-11-29T23:39:17.723Z,28.97
2022-11-29T23:41:47.046Z,28.43
2022-11-29T23:44:15.009Z,43.53
2022-11-29T23:46:43.032Z,32.73
2022-11-29T23:49:11.371Z,45.93
2022-11-29T23:51:39.364Z,38.43
2022-11-29T23:54:07.686Z,27.23
2022-11-29T23:56:36.030Z,35.90
2022-11-29T23:59:05.382Z,44.37
